createdAt,value
2023-03-30T00:01:19.384Z,12.90
2023-03-30T00:03:49.815Z,12.80
2023-03-30T00:06:22.636Z,12.90
2023-03-30T00:08:57.436Z,12.80
2023-03-30T00:11:27.214Z,12.80
2023-03-30T00:13:56.229Z,12.80
2023-03-30T00:16:24.726Z,12.80
2023-03-30T00:18:53.567Z,12.80
2023-03-30T00:21:23.490Z,12.80
2023-03-30T00:23:52.377Z,12.80
2023-03-30T00:26:21.277Z,12.80
2023-03-30T00:28:50.103Z,12.90
2023-03-30T00:31:18.691Z,12.80
2023-03-30T00:33:47.851Z,13.00
2023-03-30T00:36:17.822Z,12.90
2023-03-30T00:38:48.368Z,12.90
2023-03-30T00:41:17.754Z,12.90
2023-03-30T00:43:57.368Z,12.90
2023-03-30T00:46:26.078Z,13.00
2023-03-30T00:48:58.237Z,13.00
2023-03-30T00:51:28.366Z,13.10
2023-03-30T00:54:04.663Z,13.10
2023-03-30T00:56:33.330Z,13.20
2023-03-30T00:59:03.852Z,13.20
2023-03-30T01:01:38.503Z,13.20
2023-03-30T01:04:09.765Z,13.20
2023-03-30T01:06:40.298Z,13.20
2023-03-30T01:09:10.875Z,13.20
2023-03-30T01:11:39.511Z,13.20
2023-03-30T01:14:10.654Z,13.10
2023-03-30T01:16:45.146Z,13.10
2023-03-30T01:19:38.560Z,13.10
2023-03-30T01:22:54.293Z,13.10
2023-03-30T01:25:45.735Z,13.10
2023-03-30T01:28:31.891Z,13.00
2023-03-30T01:31:30.448Z,13.00
2023-03-30T01:34:29.752Z,12.90
2023-03-30T01:37:37.594Z,12.90
2023-03-30T01:40:14.564Z,12.80
2023-03-30T01:42:54.984Z,12.80
2023-03-30T01:45:30.193Z,12.70
2023-03-30T01:48:09.341Z,12.70
2023-03-30T01:50:43.014Z,12.80
2023-03-30T01:53:16.865Z,12.70
2023-03-30T01:55:50.345Z,12.70
2023-03-30T01:58:24.180Z,12.70
2023-03-30T02:00:53.764Z,12.70
2023-03-30T02:06:00.132Z,12.80
2023-03-30T02:08:33.205Z,12.90
2023-03-30T02:11:04.765Z,12.80
2023-03-30T02:13:35.065Z,12.80
2023-03-30T02:16:08.196Z,12.90
2023-03-30T02:18:38.172Z,12.90
2023-03-30T02:21:06.992Z,12.80
2023-03-30T02:23:41.186Z,12.80
2023-03-30T02:26:11.322Z,12.90
2023-03-30T02:28:40.102Z,12.70
2023-03-30T02:31:13.412Z,12.70
2023-03-30T02:33:53.138Z,12.60
2023-03-30T02:36:35.465Z,12.60
2023-03-30T02:39:14.618Z,12.60
2023-03-30T02:42:13.598Z,12.60
2023-03-30T02:44:47.549Z,12.70
2023-03-30T02:47:24.288Z,12.70
2023-03-30T02:49:58.676Z,12.80
2023-03-30T02:52:40.696Z,12.90
2023-03-30T02:55:19.765Z,13.00
2023-03-30T02:58:35.615Z,13.10
2023-03-30T03:01:15.387Z,13.10
2023-03-30T03:03:58.158Z,13.20
2023-03-30T03:06:28.763Z,13.20
2023-03-30T03:08:58.232Z,13.30
2023-03-30T03:11:29.935Z,13.30
2023-03-30T03:14:00.136Z,13.40
2023-03-30T03:16:30.923Z,13.50
2023-03-30T03:19:16.009Z,13.40
2023-03-30T03:21:45.708Z,13.40
2023-03-30T03:24:17.256Z,13.50
2023-03-30T03:27:04.651Z,13.50
2023-03-30T03:29:43.868Z,13.50
2023-03-30T03:32:12.555Z,13.50
2023-03-30T03:34:46.156Z,13.50
2023-03-30T03:37:15.657Z,13.50
2023-03-30T03:39:46.391Z,13.40
2023-03-30T03:42:16.491Z,13.40
2023-03-30T03:44:56.037Z,13.50
2023-03-30T03:47:24.665Z,13.40
2023-03-30T03:49:53.295Z,13.40
2023-03-30T03:52:21.862Z,13.40
2023-03-30T03:54:50.444Z,13.40
2023-03-30T03:57:19.344Z,13.40
2023-03-30T03:59:49.015Z,13.40
2023-03-30T04:02:19.802Z,13.40
2023-03-30T04:04:50.313Z,13.40
2023-03-30T04:07:18.873Z,13.40
2023-03-30T04:09:47.737Z,13.50
2023-03-30T04:12:42.497Z,13.50
2023-03-30T04:15:43.434Z,13.50
2023-03-30T04:18:31.387Z,13.50
2023-03-30T04:21:13.000Z,13.60
2023-03-30T04:24:04.866Z,13.50
2023-03-30T04:26:52.032Z,13.50
2023-03-30T04:29:40.777Z,13.60
2023-03-30T04:32:44.901Z,13.50
2023-03-30T04:35:33.343Z,13.50
2023-03-30T04:38:12.298Z,13.50
2023-03-30T04:40:55.123Z,13.60
2023-03-30T04:43:42.165Z,13.40
2023-03-30T04:46:29.304Z,13.30
2023-03-30T04:49:15.680Z,13.20
2023-03-30T04:52:11.864Z,13.10
2023-03-30T04:54:57.987Z,13.00
2023-03-30T04:57:44.955Z,13.00
2023-03-30T05:00:33.858Z,12.90
2023-03-30T05:03:23.252Z,12.80
2023-03-30T05:06:15.176Z,12.70
2023-03-30T05:08:45.026Z,12.70
2023-03-30T05:11:32.231Z,12.70
2023-03-30T05:14:21.021Z,12.70
2023-03-30T05:17:11.659Z,12.70
2023-03-30T05:19:55.164Z,12.80
2023-03-30T05:22:32.373Z,12.60
2023-03-30T05:25:15.751Z,12.60
2023-03-30T05:28:03.431Z,12.60
2023-03-30T05:34:00.234Z,12.50
2023-03-30T05:36:48.995Z,12.50
2023-03-30T05:39:29.806Z,12.50
2023-03-30T05:42:17.997Z,12.40
2023-03-30T05:44:56.372Z,12.30
2023-03-30T05:47:39.844Z,12.30
2023-03-30T05:50:15.654Z,12.30
2023-03-30T05:53:04.690Z,12.20
2023-03-30T05:55:39.201Z,12.20
2023-03-30T05:58:09.741Z,12.20
2023-03-30T06:01:14.386Z,12.20
2023-03-30T06:03:45.751Z,12.30
2023-03-30T06:06:14.790Z,12.30
2023-03-30T06:08:46.767Z,12.30
2023-03-30T06:11:19.492Z,12.30
2023-03-30T06:14:01.008Z,12.40
2023-03-30T06:16:31.923Z,12.50
2023-03-30T06:19:01.840Z,12.40
2023-03-30T06:21:30.976Z,12.50
2023-03-30T06:24:20.743Z,12.50
2023-03-30T06:26:50.804Z,12.70
2023-03-30T06:29:20.828Z,12.70
2023-03-30T06:31:51.251Z,12.90
2023-03-30T06:34:46.452Z,12.70
2023-03-30T06:37:16.131Z,12.80
2023-03-30T06:39:46.185Z,12.90
2023-03-30T06:42:14.864Z,13.00
2023-03-30T06:45:04.422Z,13.10
2023-03-30T06:47:33.744Z,13.20
2023-03-30T06:50:02.342Z,13.40
2023-03-30T06:52:48.493Z,13.60
2023-03-30T06:55:17.391Z,13.90
2023-03-30T06:57:48.174Z,14.30
2023-03-30T07:00:19.132Z,14.40
2023-03-30T07:03:06.791Z,14.40
2023-03-30T07:05:58.666Z,14.40
2023-03-30T07:08:40.228Z,14.40
2023-03-30T07:11:11.437Z,14.40
2023-03-30T07:13:42.067Z,14.50
2023-03-30T07:16:12.220Z,14.50
2023-03-30T07:18:40.904Z,14.40
2023-03-30T07:21:09.531Z,14.30
2023-03-30T07:23:41.948Z,14.20
2023-03-30T07:26:13.292Z,14.20
2023-03-30T07:28:53.408Z,14.00
2023-03-30T07:31:25.477Z,14.00
2023-03-30T07:33:54.209Z,14.00
2023-03-30T07:36:26.482Z,14.00
2023-03-30T07:38:55.310Z,14.00
2023-03-30T07:41:24.190Z,14.00
2023-03-30T07:43:57.436Z,14.00
2023-03-30T07:46:27.717Z,14.00
2023-03-30T07:48:57.594Z,14.00
2023-03-30T07:51:28.394Z,14.10
2023-03-30T07:54:13.229Z,14.20
2023-03-30T07:56:54.832Z,14.50
2023-03-30T07:59:25.175Z,14.70
2023-03-30T08:01:59.606Z,14.90
2023-03-30T08:04:52.918Z,14.80
2023-03-30T08:07:40.106Z,15.00
2023-03-30T08:10:14.905Z,15.00
2023-03-30T08:12:43.524Z,14.80
2023-03-30T08:15:12.678Z,14.80
2023-03-30T08:17:42.659Z,14.80
2023-03-30T08:20:11.769Z,14.80
2023-03-30T08:22:40.431Z,14.70
2023-03-30T08:25:09.601Z,14.60
2023-03-30T08:27:38.285Z,14.40
2023-03-30T08:30:08.074Z,14.30
2023-03-30T08:32:36.662Z,14.20
2023-03-30T08:35:07.914Z,14.10
2023-03-30T08:37:36.486Z,14.00
2023-03-30T08:40:08.387Z,14.10
2023-03-30T08:43:18.604Z,14.10
2023-03-30T08:45:47.563Z,14.10
2023-03-30T08:48:19.778Z,14.20
2023-03-30T08:50:56.134Z,14.00
2023-03-30T08:53:24.700Z,14.00
2023-03-30T08:55:58.236Z,14.00
2023-03-30T08:58:35.477Z,14.10
2023-03-30T09:01:14.269Z,14.20
2023-03-30T09:03:50.596Z,14.60
2023-03-30T09:06:27.379Z,14.90
2023-03-30T09:08:55.935Z,15.10
2023-03-30T09:11:32.807Z,15.30
2023-03-30T09:14:04.816Z,15.70
2023-03-30T09:16:39.528Z,15.90
2023-03-30T09:19:13.124Z,16.20
2023-03-30T09:21:44.152Z,16.60
2023-03-30T09:24:17.872Z,17.10
2023-03-30T09:26:52.568Z,17.60
2023-03-30T09:29:27.242Z,17.90
2023-03-30T09:32:05.817Z,18.00
2023-03-30T09:34:41.773Z,18.00
2023-03-30T09:37:16.217Z,18.20
2023-03-30T09:39:45.928Z,18.50
2023-03-30T09:42:32.739Z,18.60
2023-03-30T09:45:07.213Z,18.50
2023-03-30T09:47:44.368Z,18.30
2023-03-30T09:50:18.497Z,18.10
2023-03-30T09:52:57.822Z,18.00
2023-03-30T09:55:30.003Z,17.90
2023-03-30T09:58:13.281Z,17.70
2023-03-30T10:00:42.164Z,17.40
2023-03-30T10:03:22.059Z,16.90
2023-03-30T10:06:03.812Z,16.50
2023-03-30T10:08:32.780Z,16.30
2023-03-30T10:11:06.005Z,16.50
2023-03-30T10:13:37.590Z,16.80
2023-03-30T10:16:09.199Z,17.10
2023-03-30T10:18:45.481Z,17.30
2023-03-30T10:21:22.754Z,17.50
2023-03-30T10:24:03.567Z,17.60
2023-03-30T10:26:34.714Z,17.70
2023-03-30T10:29:05.476Z,17.70
2023-03-30T10:31:37.281Z,17.70
2023-03-30T10:34:15.317Z,17.60
2023-03-30T10:36:43.931Z,17.60
2023-03-30T10:39:17.909Z,17.60
2023-03-30T10:41:48.260Z,17.40
2023-03-30T10:44:23.244Z,17.30
2023-03-30T10:46:54.938Z,17.20
2023-03-30T10:49:39.509Z,17.30
2023-03-30T10:52:16.974Z,17.30
2023-03-30T10:54:52.798Z,17.20
2023-03-30T10:57:25.353Z,17.10
2023-03-30T11:00:20.562Z,17.10
2023-03-30T11:03:01.507Z,17.30
2023-03-30T11:05:35.649Z,17.40
2023-03-30T11:08:06.166Z,17.50
2023-03-30T11:10:38.385Z,17.60
2023-03-30T11:13:11.591Z,17.60
2023-03-30T11:15:45.141Z,17.60
2023-03-30T11:18:19.250Z,17.70
2023-03-30T11:20:54.867Z,17.90
2023-03-30T11:23:31.131Z,18.10
2023-03-30T11:26:04.491Z,17.90
2023-03-30T11:28:48.601Z,17.60
2023-03-30T11:31:34.434Z,17.30
2023-03-30T11:34:10.847Z,17.10
2023-03-30T11:36:49.704Z,16.80
2023-03-30T11:39:32.205Z,16.60
2023-03-30T11:42:08.143Z,16.30
2023-03-30T11:44:37.547Z,16.30
2023-03-30T11:47:20.229Z,16.50
2023-03-30T11:50:04.326Z,16.60
2023-03-30T11:52:38.210Z,16.70
2023-03-30T11:55:27.389Z,16.60
2023-03-30T11:58:06.818Z,16.60
2023-03-30T12:00:48.627Z,16.60
2023-03-30T12:03:27.826Z,16.60
2023-03-30T12:06:06.636Z,16.50
2023-03-30T12:08:52.161Z,16.40
2023-03-30T12:11:28.916Z,16.30
2023-03-30T12:13:58.368Z,16.30
2023-03-30T12:16:32.861Z,16.40
2023-03-30T12:19:11.056Z,16.50
2023-03-30T12:21:48.906Z,16.60
2023-03-30T12:24:23.497Z,16.70
2023-03-30T12:27:04.248Z,16.70
2023-03-30T12:30:02.628Z,16.80
2023-03-30T12:32:32.328Z,16.90
2023-03-30T12:35:00.983Z,17.10
2023-03-30T12:37:34.756Z,17.30
2023-03-30T12:40:09.619Z,17.50
2023-03-30T12:42:46.939Z,17.80
2023-03-30T12:45:25.517Z,18.20
2023-03-30T12:48:30.526Z,18.40
2023-03-30T12:51:08.600Z,18.40
2023-03-30T12:54:01.237Z,18.30
2023-03-30T12:56:37.992Z,17.90
2023-03-30T12:59:29.955Z,17.60
2023-03-30T13:02:08.806Z,17.50
2023-03-30T13:04:39.967Z,17.40
2023-03-30T13:07:15.195Z,17.20
2023-03-30T13:09:56.619Z,17.00
2023-03-30T13:12:39.830Z,17.00
2023-03-30T13:15:33.786Z,16.60
2023-03-30T13:18:05.239Z,16.40
2023-03-30T13:20:35.838Z,16.20
2023-03-30T13:23:28.179Z,16.00
2023-03-30T13:26:33.985Z,15.70
2023-03-30T13:29:11.333Z,15.50
2023-03-30T13:32:04.319Z,15.40
2023-03-30T13:35:08.507Z,15.30
2023-03-30T13:38:11.273Z,15.40
2023-03-30T13:40:57.693Z,15.50
2023-03-30T13:43:41.063Z,15.80
2023-03-30T13:46:19.109Z,16.30
2023-03-30T13:49:03.069Z,16.80
2023-03-30T13:51:32.823Z,16.90
2023-03-30T13:54:05.077Z,17.00
2023-03-30T13:56:36.917Z,16.80
2023-03-30T13:59:08.363Z,16.90
2023-03-30T14:01:40.454Z,17.20
2023-03-30T14:04:13.746Z,17.60
2023-03-30T14:06:45.899Z,17.90
2023-03-30T14:09:19.527Z,18.00
2023-03-30T14:11:51.509Z,18.00
2023-03-30T14:14:23.848Z,18.00
2023-03-30T14:16:53.860Z,18.10
2023-03-30T14:19:26.088Z,18.30
2023-03-30T14:21:58.242Z,18.40
2023-03-30T14:24:33.124Z,18.70
2023-03-30T14:27:04.076Z,19.10
2023-03-30T14:29:33.291Z,19.40
2023-03-30T14:32:09.261Z,19.60
2023-03-30T14:34:38.541Z,19.80
2023-03-30T14:37:09.205Z,20.20
2023-03-30T14:39:41.554Z,20.40
2023-03-30T14:42:17.382Z,20.30
2023-03-30T14:44:48.276Z,20.10
2023-03-30T14:47:22.211Z,20.00
2023-03-30T14:49:54.514Z,19.70
2023-03-30T14:52:26.658Z,19.40
2023-03-30T14:55:05.339Z,18.90
2023-03-30T14:57:38.991Z,18.50
2023-03-30T15:00:21.038Z,18.20
2023-03-30T15:02:54.194Z,18.10
2023-03-30T15:05:25.686Z,17.90
2023-03-30T15:07:54.427Z,17.60
2023-03-30T15:10:26.644Z,17.30
2023-03-30T15:12:58.389Z,17.10
2023-03-30T15:15:30.675Z,16.90
2023-03-30T15:18:01.602Z,16.60
2023-03-30T15:20:32.825Z,16.40
2023-03-30T15:23:02.047Z,16.30
2023-03-30T15:25:33.369Z,16.20
2023-03-30T15:28:05.048Z,16.10
2023-03-30T15:30:37.082Z,16.20
2023-03-30T15:33:08.542Z,16.20
2023-03-30T15:35:38.678Z,16.30
2023-03-30T15:38:17.151Z,16.20
2023-03-30T15:40:47.005Z,16.10
2023-03-30T15:43:21.109Z,16.20
2023-03-30T15:45:52.927Z,16.50
2023-03-30T15:48:25.780Z,16.70
2023-03-30T15:51:03.597Z,16.70
2023-03-30T15:53:41.144Z,16.60
2023-03-30T15:56:14.348Z,16.50
2023-03-30T15:58:44.070Z,16.50
2023-03-30T16:01:15.774Z,16.60
2023-03-30T16:03:54.795Z,16.70
2023-03-30T16:06:23.924Z,16.50
2023-03-30T16:08:52.510Z,16.60
2023-03-30T16:11:22.744Z,16.90
2023-03-30T16:13:54.012Z,17.20
2023-03-30T16:16:22.782Z,17.40
2023-03-30T16:18:52.785Z,17.50
2023-03-30T16:21:24.438Z,17.50
2023-03-30T16:23:53.103Z,17.40
2023-03-30T16:26:21.984Z,17.20
2023-03-30T16:28:52.629Z,17.10
2023-03-30T16:31:23.759Z,17.40
2023-03-30T16:33:54.125Z,17.70
2023-03-30T16:36:24.322Z,17.70
2023-03-30T16:38:52.943Z,17.70
2023-03-30T16:41:23.011Z,17.80
2023-03-30T16:43:51.678Z,17.70
2023-03-30T16:46:22.804Z,17.50
2023-03-30T16:48:52.794Z,17.30
2023-03-30T16:51:21.468Z,17.10
2023-03-30T16:53:50.033Z,16.80
2023-03-30T16:56:20.348Z,16.50
2023-03-30T16:58:49.349Z,16.30
2023-03-30T17:01:18.858Z,16.30
2023-03-30T17:03:47.864Z,16.10
2023-03-30T17:06:17.856Z,16.00
2023-03-30T17:08:46.460Z,15.90
2023-03-30T17:11:15.581Z,15.80
2023-03-30T17:13:46.471Z,15.70
2023-03-30T17:16:16.124Z,15.50
2023-03-30T17:18:44.878Z,15.30
2023-03-30T17:21:16.421Z,15.20
2023-03-30T17:23:47.965Z,15.10
2023-03-30T17:26:17.617Z,15.00
2023-03-30T17:28:46.509Z,14.90
2023-03-30T17:31:17.466Z,14.70
2023-03-30T17:33:46.329Z,14.70
2023-03-30T17:36:19.239Z,14.50
2023-03-30T17:38:50.515Z,14.40
2023-03-30T17:41:20.413Z,14.30
2023-03-30T17:43:49.621Z,14.20
2023-03-30T17:46:20.794Z,14.10
2023-03-30T17:48:51.071Z,14.10
2023-03-30T17:51:20.602Z,14.00
2023-03-30T17:53:50.604Z,13.90
2023-03-30T17:56:19.221Z,13.80
2023-03-30T17:58:49.479Z,13.70
2023-03-30T18:01:18.169Z,13.60
2023-03-30T18:03:46.955Z,13.60
2023-03-30T18:06:15.696Z,13.50
2023-03-30T18:08:44.322Z,13.50
2023-03-30T18:11:14.250Z,13.40
2023-03-30T18:13:42.839Z,13.40
2023-03-30T18:16:13.850Z,13.40
2023-03-30T18:18:42.457Z,13.30
2023-03-30T18:21:11.963Z,13.20
2023-03-30T18:23:40.486Z,13.10
2023-03-30T18:26:12.786Z,13.10
2023-03-30T18:28:44.115Z,12.90
2023-03-30T18:31:13.292Z,12.90
2023-03-30T18:33:41.972Z,12.90
2023-03-30T18:36:12.788Z,12.90
2023-03-30T18:38:42.112Z,12.90
2023-03-30T18:41:12.502Z,12.90
2023-03-30T18:43:42.502Z,12.80
2023-03-30T18:46:12.533Z,12.70
2023-03-30T18:48:41.275Z,12.80
2023-03-30T18:51:11.948Z,12.70
2023-03-30T18:53:40.690Z,12.70
2023-03-30T18:56:13.556Z,12.70
2023-03-30T18:58:43.880Z,12.80
2023-03-30T19:01:15.702Z,12.60
2023-03-30T19:03:44.843Z,12.70
2023-03-30T19:06:15.982Z,12.50
2023-03-30T19:08:44.534Z,12.50
2023-03-30T19:11:17.499Z,12.50
2023-03-30T19:13:48.186Z,12.50
2023-03-30T19:16:18.587Z,12.40
2023-03-30T19:18:49.383Z,12.40
2023-03-30T19:21:19.422Z,12.30
2023-03-30T19:23:48.112Z,12.30
2023-03-30T19:26:16.853Z,12.30
2023-03-30T19:28:46.852Z,12.20
2023-03-30T19:31:16.417Z,12.20
2023-03-30T19:33:45.217Z,12.20
2023-03-30T19:36:13.770Z,12.10
2023-03-30T19:38:43.958Z,12.10
2023-03-30T19:41:12.761Z,12.10
2023-03-30T19:43:41.324Z,12.00
2023-03-30T19:46:11.319Z,12.00
2023-03-30T19:48:39.921Z,12.00
2023-03-30T19:51:08.654Z,11.90
2023-03-30T19:53:37.557Z,11.90
2023-03-30T19:56:10.286Z,11.90
2023-03-30T19:58:38.938Z,11.80
2023-03-30T20:01:08.663Z,11.80
2023-03-30T20:03:38.816Z,11.70
2023-03-30T20:06:11.013Z,11.70
2023-03-30T20:08:40.209Z,11.70
2023-03-30T20:11:09.610Z,11.70
2023-03-30T20:13:38.648Z,11.70
2023-03-30T20:16:07.546Z,11.70
2023-03-30T20:18:36.253Z,11.70
2023-03-30T20:21:06.698Z,11.70
2023-03-30T20:23:35.532Z,11.70
2023-03-30T20:26:04.769Z,11.60
2023-03-30T20:28:33.662Z,11.60
2023-03-30T20:31:02.822Z,11.60
2023-03-30T20:33:33.768Z,11.60
2023-03-30T20:36:02.407Z,11.50
2023-03-30T20:38:32.486Z,11.50
2023-03-30T20:41:04.059Z,11.40
2023-03-30T20:43:40.604Z,11.40
2023-03-30T20:46:15.439Z,11.40
2023-03-30T20:48:44.996Z,11.40
2023-03-30T20:51:15.512Z,11.40
2023-03-30T20:53:45.513Z,11.40
2023-03-30T20:56:14.300Z,11.30
2023-03-30T20:58:42.894Z,11.30
2023-03-30T21:01:14.769Z,11.40
2023-03-30T21:03:45.230Z,11.20
2023-03-30T21:06:18.115Z,11.20
2023-03-30T21:08:48.054Z,11.20
2023-03-30T21:11:16.601Z,11.10
2023-03-30T21:13:45.402Z,11.10
2023-03-30T21:16:14.324Z,11.10
2023-03-30T21:18:43.077Z,11.10
2023-03-30T21:21:11.723Z,11.10
2023-03-30T21:23:41.395Z,11.10
2023-03-30T21:26:11.801Z,11.10
2023-03-30T21:28:41.369Z,11.00
2023-03-30T21:31:14.140Z,11.00
2023-03-30T21:33:42.827Z,11.10
2023-03-30T21:36:12.047Z,11.10
2023-03-30T21:38:40.902Z,11.10
2023-03-30T21:41:12.752Z,11.10
2023-03-30T21:43:44.070Z,11.10
2023-03-30T21:46:14.337Z,11.00
2023-03-30T21:48:45.399Z,11.00
2023-03-30T21:51:15.884Z,11.00
2023-03-30T21:53:48.101Z,11.00
2023-03-30T21:56:19.572Z,11.00
2023-03-30T21:58:48.224Z,10.90
2023-03-30T22:01:17.301Z,10.90
2023-03-30T22:03:46.729Z,10.90
2023-03-30T22:06:17.221Z,10.90
2023-03-30T22:08:46.364Z,10.80
2023-03-30T22:11:18.634Z,10.80
2023-03-30T22:13:48.861Z,10.80
2023-03-30T22:16:19.633Z,10.80
2023-03-30T22:18:48.181Z,10.70
2023-03-30T22:21:24.067Z,10.70
2023-03-30T22:23:54.553Z,10.70
2023-03-30T22:26:24.679Z,10.70
2023-03-30T22:28:53.233Z,10.70
2023-03-30T22:31:22.075Z,10.70
2023-03-30T22:33:50.766Z,10.70
2023-03-30T22:36:20.976Z,10.70
2023-03-30T22:38:50.790Z,10.70
2023-03-30T22:41:24.766Z,10.70
2023-03-30T22:43:56.246Z,10.70
2023-03-30T22:46:26.906Z,10.60
2023-03-30T22:48:56.419Z,10.60
2023-03-30T22:51:26.220Z,10.60
2023-03-30T22:53:57.846Z,10.60
2023-03-30T22:56:27.319Z,10.60
2023-03-30T22:58:57.997Z,10.60
2023-03-30T23:01:29.226Z,10.60
2023-03-30T23:03:59.583Z,10.60
2023-03-30T23:06:28.561Z,10.60
2023-03-30T23:08:57.209Z,10.60
2023-03-30T23:11:26.357Z,10.50
2023-03-30T23:13:55.326Z,10.50
2023-03-30T23:16:25.350Z,10.50
2023-03-30T23:18:53.901Z,10.40
2023-03-30T23:21:22.891Z,10.40
2023-03-30T23:23:51.884Z,10.40
2023-03-30T23:26:21.401Z,10.40
2023-03-30T23:28:49.966Z,10.30
2023-03-30T23:31:18.944Z,10.20
2023-03-30T23:33:49.273Z,10.20
2023-03-30T23:36:19.088Z,10.10
2023-03-30T23:38:48.671Z,10.10
2023-03-30T23:41:20.063Z,10.10
2023-03-30T23:43:48.981Z,10.00
2023-03-30T23:46:17.780Z,10.00
2023-03-30T23:48:46.608Z,10.00
2023-03-30T23:51:16.506Z,10.00
2023-03-30T23:53:45.060Z,10.00
2023-03-30T23:56:17.157Z,10.10
2023-03-30T23:58:46.199Z,10.10
